createdAt,value
2016-12-31T00:00:04.059Z,0
2016-12-31T00:05:04.857Z,0
2016-12-31T00:10:04.895Z,0
2016-12-31T00:15:05.028Z,0
2016-12-31T00:20:04.911Z,0
2016-12-31T00:25:04.862Z,0
2016-12-31T00:30:04.875Z,0
2016-12-31T00:35:04.848Z,0
2016-12-31T00:40:04.881Z,0
2016-12-31T00:45:04.888Z,0
2016-12-31T00:50:04.794Z,0
2016-12-31T00:55:04.883Z,0
2016-12-31T01:00:04.804Z,0
2016-12-31T01:05:04.767Z,0
2016-12-31T01:10:04.717Z,0
2016-12-31T01:15:04.706Z,0
2016-12-31T01:20:04.504Z,0
2016-12-31T01:25:04.601Z,0
2016-12-31T01:30:04.578Z,0
2016-12-31T01:35:04.624Z,0
2016-12-31T01:40:04.609Z,0
2016-12-31T01:45:04.430Z,0
2016-12-31T01:50:04.614Z,0
2016-12-31T01:55:04.455Z,0
2016-12-31T02:00:04.099Z,0
2016-12-31T02:05:05.082Z,0
2016-12-31T02:10:04.158Z,0
2016-12-31T02:15:04.062Z,0
2016-12-31T02:20:04.775Z,0
2016-12-31T02:25:04.807Z,0
2016-12-31T02:30:04.649Z,0
2016-12-31T02:35:04.612Z,0
2016-12-31T02:40:04.813Z,0
2016-12-31T02:45:04.661Z,0
2016-12-31T02:50:04.629Z,0
2016-12-31T02:55:04.485Z,0
2016-12-31T03:00:04.789Z,0
2016-12-31T03:05:10.054Z,0
2016-12-31T03:10:04.751Z,0
2016-12-31T03:15:04.592Z,0
2016-12-31T03:20:04.699Z,0
2016-12-31T03:25:04.648Z,0
2016-12-31T03:30:04.790Z,0
2016-12-31T03:35:04.660Z,0
2016-12-31T03:40:04.845Z,0
2016-12-31T03:45:04.498Z,0
2016-12-31T03:50:04.377Z,0
2016-12-31T03:55:04.545Z,0
2016-12-31T04:00:04.585Z,0
2016-12-31T04:05:05.138Z,0
2016-12-31T04:10:04.609Z,0
2016-12-31T04:15:04.510Z,0
2016-12-31T04:20:04.680Z,0
2016-12-31T04:25:04.627Z,0
2016-12-31T04:30:04.496Z,0
2016-12-31T04:35:04.641Z,0
2016-12-31T04:40:04.991Z,0
2016-12-31T04:45:04.819Z,0
2016-12-31T04:50:04.532Z,0
2016-12-31T04:55:04.205Z,0
2016-12-31T05:00:04.159Z,0
2016-12-31T05:05:04.144Z,0
2016-12-31T05:10:04.502Z,0
2016-12-31T05:15:04.362Z,0
2016-12-31T05:20:04.304Z,0
2016-12-31T05:25:04.040Z,0
2016-12-31T05:30:04.923Z,0
2016-12-31T05:35:04.702Z,0
2016-12-31T05:40:04.712Z,0
2016-12-31T05:45:04.806Z,0
2016-12-31T05:50:04.727Z,0
2016-12-31T05:55:04.386Z,0
2016-12-31T06:00:04.097Z,0
2016-12-31T06:05:04.849Z,0
2016-12-31T06:10:04.239Z,0
2016-12-31T06:15:04.081Z,0
2016-12-31T06:20:04.788Z,0
2016-12-31T06:25:04.564Z,0
2016-12-31T06:30:04.607Z,0
2016-12-31T06:35:05.075Z,0
2016-12-31T06:40:05.069Z,0
2016-12-31T06:45:04.289Z,0
2016-12-31T06:50:04.333Z,0
2016-12-31T06:55:04.251Z,0
2016-12-31T07:00:04.918Z,0
2016-12-31T07:05:04.724Z,1
2016-12-31T07:10:04.010Z,4
2016-12-31T07:15:05.006Z,8
2016-12-31T07:20:04.841Z,15
2016-12-31T07:25:04.801Z,26
2016-12-31T07:30:04.852Z,35
2016-12-31T07:35:04.609Z,41
2016-12-31T07:40:04.896Z,52
2016-12-31T07:45:04.943Z,62
2016-12-31T07:50:04.727Z,84
2016-12-31T07:55:04.534Z,122
2016-12-31T08:00:04.399Z,170
2016-12-31T08:05:04.376Z,278
2016-12-31T08:10:04.773Z,327
2016-12-31T08:15:04.785Z,377
2016-12-31T08:20:03.921Z,445
2016-12-31T08:25:04.145Z,508
2016-12-31T08:30:04.378Z,548
2016-12-31T08:35:04.388Z,608
2016-12-31T08:40:04.500Z,686
2016-12-31T08:45:04.417Z,773
2016-12-31T08:55:35.735Z,895
2016-12-31T09:00:04.761Z,893
2016-12-31T09:05:04.504Z,1000
2016-12-31T09:10:04.844Z,1000
2016-12-31T09:15:04.605Z,1000
2016-12-31T09:20:04.323Z,1000
2016-12-31T09:25:04.192Z,1000
2016-12-31T09:30:04.114Z,1000
2016-12-31T09:35:04.847Z,1000
2016-12-31T09:40:04.241Z,1000
2016-12-31T09:45:04.973Z,1000
2016-12-31T09:50:04.802Z,1000
2016-12-31T09:55:04.709Z,1000
2016-12-31T10:00:04.436Z,1000
2016-12-31T10:05:04.256Z,1000
2016-12-31T10:10:04.284Z,2000
2016-12-31T10:15:04.401Z,2000
2016-12-31T10:20:05.131Z,2000
2016-12-31T10:25:04.119Z,2000
2016-12-31T10:30:04.852Z,2000
2016-12-31T10:35:04.770Z,1000
2016-12-31T10:40:04.894Z,2000
2016-12-31T10:45:04.915Z,2000
2016-12-31T10:50:04.840Z,2000
2016-12-31T10:55:04.934Z,2000
2016-12-31T11:00:03.980Z,2000
2016-12-31T11:05:04.996Z,2000
2016-12-31T11:10:04.289Z,2000
2016-12-31T11:15:04.424Z,2000
2016-12-31T11:20:04.134Z,2000
2016-12-31T11:25:04.881Z,2000
2016-12-31T11:30:04.593Z,2000
2016-12-31T11:35:04.497Z,2000
2016-12-31T11:40:04.833Z,2000
2016-12-31T11:45:04.714Z,2000
2016-12-31T11:50:04.549Z,2000
2016-12-31T11:55:04.292Z,2000
2016-12-31T12:00:03.995Z,2000
2016-12-31T12:05:04.827Z,2000
2016-12-31T12:10:04.205Z,2000
2016-12-31T12:15:04.137Z,1000
2016-12-31T12:20:03.980Z,2000
2016-12-31T12:25:04.816Z,2000
2016-12-31T12:30:04.678Z,2000
2016-12-31T12:35:04.421Z,1000
2016-12-31T12:40:04.673Z,1000
2016-12-31T12:45:04.564Z,1000
2016-12-31T12:50:04.566Z,1000
2016-12-31T12:55:04.540Z,1000
2016-12-31T13:00:04.396Z,1000
2016-12-31T13:05:04.357Z,1000
2016-12-31T13:10:04.384Z,1000
2016-12-31T13:15:04.424Z,1000
2016-12-31T13:20:04.642Z,1000
2016-12-31T13:25:04.475Z,1000
2016-12-31T13:30:04.612Z,1000
2016-12-31T13:35:04.736Z,1000
2016-12-31T13:40:04.948Z,1000
2016-12-31T13:45:03.998Z,1000
2016-12-31T13:50:05.012Z,1000
2016-12-31T13:55:04.737Z,882
2016-12-31T14:00:04.715Z,795
2016-12-31T14:05:04.657Z,726
2016-12-31T14:10:04.777Z,656
2016-12-31T14:15:04.941Z,642
2016-12-31T14:20:04.731Z,598
2016-12-31T14:25:04.525Z,580
2016-12-31T14:30:04.407Z,530
2016-12-31T14:35:04.387Z,451
2016-12-31T14:40:04.307Z,407
2016-12-31T14:45:04.467Z,396
2016-12-31T14:50:04.483Z,347
2016-12-31T14:55:04.389Z,303
2016-12-31T15:00:04.398Z,202
2016-12-31T15:05:04.517Z,138
2016-12-31T15:10:04.829Z,94
2016-12-31T15:15:04.777Z,88
2016-12-31T15:20:04.695Z,74
2016-12-31T15:25:04.586Z,63
2016-12-31T15:30:04.475Z,59
2016-12-31T15:35:04.356Z,47
2016-12-31T15:40:04.477Z,45
2016-12-31T15:45:04.431Z,27
2016-12-31T15:50:04.494Z,19
2016-12-31T15:55:04.481Z,12
2016-12-31T16:00:04.400Z,6
2016-12-31T16:05:04.206Z,4
2016-12-31T16:10:04.677Z,1
2016-12-31T16:15:04.635Z,1
2016-12-31T16:20:04.735Z,0
2016-12-31T16:25:04.707Z,0
2016-12-31T16:30:04.669Z,0
2016-12-31T16:35:04.540Z,0
2016-12-31T16:40:04.877Z,0
2016-12-31T16:45:04.793Z,0
2016-12-31T16:50:04.997Z,0
2016-12-31T16:55:04.819Z,0
2016-12-31T17:00:05.227Z,0
2016-12-31T17:05:03.893Z,0
2016-12-31T17:10:04.299Z,0
2016-12-31T17:15:04.305Z,0
2016-12-31T17:20:04.238Z,0
2016-12-31T17:25:04.222Z,0
2016-12-31T17:30:04.132Z,0
2016-12-31T17:35:04.829Z,0
2016-12-31T17:40:04.258Z,0
2016-12-31T17:45:04.143Z,0
2016-12-31T17:50:04.021Z,0
2016-12-31T17:55:04.840Z,0
2016-12-31T18:00:04.569Z,0
2016-12-31T18:05:04.460Z,0
2016-12-31T18:10:04.713Z,0
2016-12-31T18:15:04.417Z,0
2016-12-31T18:20:04.548Z,0
2016-12-31T18:25:04.250Z,0
2016-12-31T18:30:04.218Z,0
2016-12-31T18:35:04.146Z,0
2016-12-31T18:40:04.244Z,0
2016-12-31T18:45:04.259Z,0
2016-12-31T18:50:04.177Z,0
2016-12-31T18:55:04.906Z,0
2016-12-31T19:00:04.109Z,0
2016-12-31T19:05:04.953Z,0
2016-12-31T19:10:04.181Z,0
2016-12-31T19:15:04.335Z,0
2016-12-31T19:20:04.353Z,0
2016-12-31T19:25:04.284Z,0
2016-12-31T19:30:04.346Z,0
2016-12-31T19:35:04.024Z,0
2016-12-31T19:40:04.135Z,0
2016-12-31T19:45:04.150Z,0
2016-12-31T19:50:04.235Z,0
2016-12-31T19:55:04.228Z,0
2016-12-31T20:00:04.907Z,0
2016-12-31T20:05:04.573Z,0
2016-12-31T20:10:04.665Z,0
2016-12-31T20:15:04.757Z,0
2016-12-31T20:20:04.836Z,0
2016-12-31T20:25:04.562Z,0
2016-12-31T20:30:04.387Z,0
2016-12-31T20:35:04.222Z,0
2016-12-31T20:40:04.280Z,0
2016-12-31T20:45:04.103Z,0
2016-12-31T20:50:05.096Z,0
2016-12-31T20:55:04.007Z,0
2016-12-31T21:00:04.861Z,0
2016-12-31T21:05:05.015Z,0
2016-12-31T21:10:04.277Z,0
2016-12-31T21:15:04.198Z,0
2016-12-31T21:20:04.077Z,0
2016-12-31T21:25:04.144Z,0
2016-12-31T21:30:04.375Z,0
2016-12-31T21:35:04.568Z,0
2016-12-31T21:40:04.868Z,0
2016-12-31T21:45:04.873Z,0
2016-12-31T21:50:04.612Z,0
2016-12-31T21:55:04.750Z,0
2016-12-31T22:00:05.042Z,0
2016-12-31T22:05:04.964Z,0
2016-12-31T22:10:04.783Z,0
2016-12-31T22:15:04.884Z,0
2016-12-31T22:20:05.027Z,0
2016-12-31T22:25:04.897Z,0
2016-12-31T22:30:04.733Z,0
2016-12-31T22:35:04.863Z,0
2016-12-31T22:40:04.144Z,0
2016-12-31T22:45:03.956Z,0
2016-12-31T22:50:04.083Z,0
2016-12-31T22:55:04.147Z,0
2016-12-31T23:00:04.098Z,0
2016-12-31T23:05:04.263Z,1
2016-12-31T23:10:04.614Z,0
2016-12-31T23:15:04.594Z,1
2016-12-31T23:20:04.516Z,0
2016-12-31T23:25:04.319Z,0
2016-12-31T23:30:04.276Z,0
2016-12-31T23:35:03.947Z,0
2016-12-31T23:40:04.069Z,0
2016-12-31T23:45:04.942Z,0
2016-12-31T23:50:04.680Z,0
2016-12-31T23:55:04.374Z,0
